createdAt,value
2019-03-30T00:00:38.611Z,8.70
2019-03-30T00:03:07.826Z,8.70
2019-03-30T00:05:37.010Z,8.60
2019-03-30T00:08:06.107Z,8.60
2019-03-30T00:10:35.307Z,8.60
2019-03-30T00:13:04.135Z,8.60
2019-03-30T00:15:33.295Z,8.60
2019-03-30T00:18:02.117Z,8.50
2019-03-30T00:20:30.901Z,8.50
2019-03-30T00:23:00.069Z,8.50
2019-03-30T00:25:29.270Z,8.50
2019-03-30T00:27:58.096Z,8.50
2019-03-30T00:30:26.884Z,8.50
2019-03-30T00:32:55.694Z,8.40
2019-03-30T00:35:24.512Z,8.40
2019-03-30T00:37:53.627Z,8.50
2019-03-30T00:40:22.829Z,8.40
2019-03-30T00:42:51.647Z,8.50
2019-03-30T00:45:20.817Z,8.50
2019-03-30T00:47:49.563Z,8.50
2019-03-30T00:50:18.690Z,8.50
2019-03-30T00:52:47.900Z,8.50
2019-03-30T00:55:16.615Z,8.50
2019-03-30T00:57:45.435Z,8.50
2019-03-30T01:00:16.111Z,8.50
2019-03-30T01:02:45.202Z,8.50
2019-03-30T01:05:14.119Z,8.50
2019-03-30T01:07:43.025Z,8.50
2019-03-30T01:10:13.111Z,8.50
2019-03-30T01:12:42.307Z,8.50
2019-03-30T01:15:11.077Z,8.40
2019-03-30T01:17:39.862Z,8.30
2019-03-30T01:20:09.390Z,8.30
2019-03-30T01:22:38.187Z,8.40
2019-03-30T01:25:08.759Z,8.40
2019-03-30T01:27:37.907Z,8.40
2019-03-30T01:30:22.157Z,8.40
2019-03-30T01:32:38.534Z,8.30
2019-03-30T01:35:07.730Z,8.30
2019-03-30T01:37:36.866Z,8.30
2019-03-30T01:40:08.724Z,8.30
2019-03-30T01:42:37.569Z,8.30
2019-03-30T01:45:08.510Z,8.40
2019-03-30T01:47:37.648Z,8.40
2019-03-30T01:50:17.621Z,8.40
2019-03-30T01:52:41.465Z,8.40
2019-03-30T01:55:10.970Z,8.40
2019-03-30T01:57:39.749Z,8.30
2019-03-30T02:00:10.705Z,8.30
2019-03-30T02:02:39.912Z,8.40
2019-03-30T02:05:10.013Z,8.40
2019-03-30T02:07:38.876Z,8.50
2019-03-30T02:10:09.160Z,8.40
2019-03-30T02:12:38.047Z,8.40
2019-03-30T02:15:07.747Z,8.40
2019-03-30T02:17:36.524Z,8.30
2019-03-30T02:20:11.367Z,8.30
2019-03-30T02:22:40.458Z,8.30
2019-03-30T02:25:09.760Z,8.20
2019-03-30T02:27:38.959Z,8.20
2019-03-30T02:30:08.152Z,8.20
2019-03-30T02:32:37.365Z,8.10
2019-03-30T02:35:07.606Z,8.10
2019-03-30T02:37:36.807Z,8.10
2019-03-30T02:40:07.416Z,8.00
2019-03-30T02:42:36.616Z,8.10
2019-03-30T02:45:06.400Z,8.10
2019-03-30T02:47:35.534Z,8.10
2019-03-30T02:50:06.351Z,8.00
2019-03-30T02:52:35.076Z,8.00
2019-03-30T02:55:04.865Z,8.00
2019-03-30T02:57:34.060Z,8.00
2019-03-30T03:00:03.451Z,8.00
2019-03-30T03:02:32.563Z,8.10
2019-03-30T03:05:01.656Z,8.10
2019-03-30T03:07:30.764Z,8.10
2019-03-30T03:09:59.851Z,8.20
2019-03-30T03:12:28.668Z,8.10
2019-03-30T03:14:57.454Z,8.10
2019-03-30T03:17:26.273Z,8.20
2019-03-30T03:19:55.063Z,8.20
2019-03-30T03:22:24.204Z,8.10
2019-03-30T03:24:53.307Z,8.10
2019-03-30T03:27:22.396Z,8.00
2019-03-30T03:29:51.208Z,7.90
2019-03-30T03:32:20.386Z,7.90
2019-03-30T03:34:49.518Z,7.80
2019-03-30T03:37:18.690Z,7.80
2019-03-30T03:39:47.779Z,7.80
2019-03-30T03:42:16.575Z,7.80
2019-03-30T03:44:45.661Z,7.70
2019-03-30T03:47:14.749Z,7.70
2019-03-30T03:49:43.849Z,7.60
2019-03-30T03:52:12.782Z,7.50
2019-03-30T03:54:42.869Z,7.40
2019-03-30T03:57:13.726Z,7.40
2019-03-30T03:59:43.264Z,7.40
2019-03-30T04:02:15.145Z,7.30
2019-03-30T04:04:47.649Z,7.30
2019-03-30T04:07:18.642Z,7.30
2019-03-30T04:09:49.544Z,7.30
2019-03-30T04:12:20.668Z,7.30
2019-03-30T04:14:54.483Z,7.30
2019-03-30T04:17:23.878Z,7.30
2019-03-30T04:19:52.979Z,7.40
2019-03-30T04:22:21.761Z,7.40
2019-03-30T04:24:50.587Z,7.40
2019-03-30T04:27:19.300Z,7.40
2019-03-30T04:29:48.300Z,7.40
2019-03-30T04:32:17.124Z,7.50
2019-03-30T04:34:45.934Z,7.50
2019-03-30T04:37:15.012Z,7.50
2019-03-30T04:39:43.837Z,7.50
2019-03-30T04:42:12.554Z,7.50
2019-03-30T04:44:41.374Z,7.50
2019-03-30T04:47:10.154Z,7.50
2019-03-30T04:49:39.286Z,7.50
2019-03-30T04:52:08.023Z,7.60
2019-03-30T04:54:37.150Z,7.70
2019-03-30T04:57:06.365Z,7.60
2019-03-30T04:59:35.151Z,7.60
2019-03-30T05:02:04.442Z,7.70
2019-03-30T05:04:33.270Z,7.60
2019-03-30T05:07:02.048Z,7.50
2019-03-30T05:09:31.232Z,7.50
2019-03-30T05:12:00.427Z,7.50
2019-03-30T05:14:29.528Z,7.50
2019-03-30T05:16:58.248Z,7.40
2019-03-30T05:19:27.406Z,7.40
2019-03-30T05:22:10.874Z,7.40
2019-03-30T05:24:26.962Z,7.30
2019-03-30T05:26:56.132Z,7.20
2019-03-30T05:29:24.839Z,7.10
2019-03-30T05:31:54.021Z,7.10
2019-03-30T05:34:22.774Z,7.10
2019-03-30T05:36:51.903Z,7.10
2019-03-30T05:39:20.998Z,7.10
2019-03-30T05:41:50.191Z,7.00
2019-03-30T05:44:18.909Z,7.00
2019-03-30T05:46:47.984Z,6.90
2019-03-30T05:49:17.176Z,6.90
2019-03-30T05:51:46.276Z,6.90
2019-03-30T05:54:15.072Z,6.90
2019-03-30T05:56:43.820Z,6.80
2019-03-30T05:59:12.641Z,6.70
2019-03-30T06:01:41.430Z,6.60
2019-03-30T06:04:10.518Z,6.60
2019-03-30T06:06:39.727Z,6.50
2019-03-30T06:09:08.504Z,6.50
2019-03-30T06:11:37.722Z,6.60
2019-03-30T06:14:06.508Z,6.60
2019-03-30T06:16:35.325Z,6.60
2019-03-30T06:19:04.491Z,6.50
2019-03-30T06:21:33.594Z,6.50
2019-03-30T06:24:02.785Z,6.40
2019-03-30T06:26:31.576Z,6.40
2019-03-30T06:29:00.367Z,6.40
2019-03-30T06:31:29.561Z,6.40
2019-03-30T06:33:58.772Z,6.40
2019-03-30T06:36:27.865Z,6.40
2019-03-30T06:38:57.068Z,6.40
2019-03-30T06:41:26.258Z,6.30
2019-03-30T06:43:55.351Z,6.30
2019-03-30T06:46:24.177Z,6.20
2019-03-30T06:48:53.338Z,6.20
2019-03-30T06:51:22.434Z,6.20
2019-03-30T06:53:51.633Z,6.20
2019-03-30T06:56:20.349Z,6.20
2019-03-30T06:58:49.523Z,6.20
2019-03-30T07:01:18.618Z,6.10
2019-03-30T07:03:47.393Z,6.20
2019-03-30T07:06:17.274Z,6.10
2019-03-30T07:08:48.065Z,6.20
2019-03-30T07:11:21.290Z,6.10
2019-03-30T07:13:50.689Z,6.10
2019-03-30T07:16:19.742Z,6.00
2019-03-30T07:18:51.302Z,5.90
2019-03-30T07:21:20.498Z,5.90
2019-03-30T07:23:49.295Z,5.90
2019-03-30T07:26:18.074Z,5.80
2019-03-30T07:28:47.195Z,5.90
2019-03-30T07:31:16.215Z,5.90
2019-03-30T07:33:44.993Z,5.90
2019-03-30T07:36:14.159Z,5.90
2019-03-30T07:38:43.260Z,5.90
2019-03-30T07:41:11.966Z,5.90
2019-03-30T07:43:41.146Z,5.80
2019-03-30T07:46:09.864Z,5.80
2019-03-30T07:48:38.569Z,5.90
2019-03-30T07:51:07.719Z,5.90
2019-03-30T07:53:44.349Z,5.90
2019-03-30T07:56:08.689Z,5.90
2019-03-30T07:58:37.738Z,5.90
2019-03-30T08:01:06.866Z,6.00
2019-03-30T08:03:35.582Z,6.00
2019-03-30T08:06:04.334Z,6.00
2019-03-30T08:08:33.125Z,6.00
2019-03-30T08:11:02.325Z,6.10
2019-03-30T08:13:31.423Z,6.10
2019-03-30T08:16:00.530Z,6.20
2019-03-30T08:18:29.732Z,6.40
2019-03-30T08:20:58.550Z,6.50
2019-03-30T08:23:39.859Z,6.50
2019-03-30T08:25:58.142Z,6.60
2019-03-30T08:28:27.437Z,6.60
2019-03-30T08:30:56.148Z,6.60
2019-03-30T08:33:25.343Z,6.60
2019-03-30T08:35:54.134Z,6.60
2019-03-30T08:38:22.950Z,6.60
2019-03-30T08:40:52.097Z,6.70
2019-03-30T08:43:20.878Z,6.70
2019-03-30T08:45:49.697Z,6.70
2019-03-30T08:48:19.360Z,6.70
2019-03-30T08:50:48.188Z,6.70
2019-03-30T08:53:17.278Z,6.70
2019-03-30T08:55:46.057Z,6.60
2019-03-30T08:58:15.070Z,6.60
2019-03-30T09:00:44.074Z,6.70
2019-03-30T09:03:12.951Z,6.70
2019-03-30T09:05:42.160Z,6.70
2019-03-30T09:08:11.354Z,6.70
2019-03-30T09:10:40.423Z,6.80
2019-03-30T09:13:09.241Z,6.90
2019-03-30T09:15:38.440Z,7.00
2019-03-30T09:18:07.535Z,7.00
2019-03-30T09:20:36.364Z,7.10
2019-03-30T09:23:05.527Z,7.10
2019-03-30T09:25:34.625Z,7.20
2019-03-30T09:28:03.475Z,7.30
2019-03-30T09:30:32.242Z,7.40
2019-03-30T09:33:01.063Z,7.40
2019-03-30T09:35:30.175Z,7.50
2019-03-30T09:37:58.907Z,7.60
2019-03-30T09:40:27.962Z,7.70
2019-03-30T09:42:57.057Z,7.90
2019-03-30T09:45:25.771Z,7.90
2019-03-30T09:47:54.585Z,8.00
2019-03-30T09:50:23.309Z,8.20
2019-03-30T09:52:52.010Z,8.40
2019-03-30T09:55:21.206Z,9.10
2019-03-30T09:57:50.313Z,10.10
2019-03-30T10:00:19.512Z,11.10
2019-03-30T10:02:48.333Z,12.20
2019-03-30T10:05:17.068Z,12.60
2019-03-30T10:07:46.088Z,12.00
2019-03-30T10:10:15.283Z,11.70
2019-03-30T10:12:43.988Z,11.50
2019-03-30T10:15:13.270Z,11.10
2019-03-30T10:17:42.055Z,10.70
2019-03-30T10:20:11.263Z,10.50
2019-03-30T10:22:42.182Z,10.20
2019-03-30T10:25:11.192Z,10.30
2019-03-30T10:27:40.283Z,10.80
2019-03-30T10:30:10.824Z,11.20
2019-03-30T10:32:39.922Z,11.90
2019-03-30T10:35:09.113Z,12.60
2019-03-30T10:37:38.315Z,12.90
2019-03-30T10:40:08.640Z,13.20
2019-03-30T10:42:37.746Z,13.60
2019-03-30T10:45:08.877Z,14.00
2019-03-30T10:47:37.603Z,14.70
2019-03-30T10:50:08.720Z,14.50
2019-03-30T10:52:37.988Z,14.10
2019-03-30T10:55:08.343Z,13.40
2019-03-30T10:57:37.435Z,12.90
2019-03-30T11:00:08.925Z,12.80
2019-03-30T11:02:39.111Z,12.40
2019-03-30T11:05:08.023Z,12.20
2019-03-30T11:07:37.197Z,11.90
2019-03-30T11:10:08.966Z,11.80
2019-03-30T11:12:38.075Z,11.60
2019-03-30T11:15:08.078Z,11.50
2019-03-30T11:17:37.175Z,11.40
2019-03-30T11:20:06.672Z,11.60
2019-03-30T11:22:35.775Z,12.20
2019-03-30T11:25:08.461Z,13.00
2019-03-30T11:27:36.728Z,13.60
2019-03-30T11:30:08.636Z,14.30
2019-03-30T11:32:37.702Z,14.80
2019-03-30T11:35:07.600Z,15.30
2019-03-30T11:37:36.705Z,15.60
2019-03-30T11:40:08.738Z,16.00
2019-03-30T11:42:37.856Z,15.90
2019-03-30T11:45:07.881Z,16.70
2019-03-30T11:47:36.976Z,17.20
2019-03-30T11:50:07.818Z,17.00
2019-03-30T11:52:37.005Z,17.20
2019-03-30T11:55:20.542Z,16.80
2019-03-30T11:57:37.694Z,16.50
2019-03-30T12:00:08.071Z,15.80
2019-03-30T12:02:37.191Z,15.10
2019-03-30T12:05:09.269Z,15.40
2019-03-30T12:07:38.003Z,15.40
2019-03-30T12:10:06.951Z,15.70
2019-03-30T12:12:37.339Z,15.40
2019-03-30T12:15:07.995Z,15.10
2019-03-30T12:17:37.100Z,15.60
2019-03-30T12:20:07.318Z,16.10
2019-03-30T12:22:36.407Z,16.20
2019-03-30T12:25:06.222Z,15.80
2019-03-30T12:27:34.928Z,16.10
2019-03-30T12:30:05.048Z,15.90
2019-03-30T12:32:34.139Z,15.80
2019-03-30T12:35:02.929Z,16.50
2019-03-30T12:37:31.863Z,16.60
2019-03-30T12:40:00.655Z,16.70
2019-03-30T12:42:29.799Z,16.90
2019-03-30T12:44:58.551Z,17.00
2019-03-30T12:47:27.582Z,16.80
2019-03-30T12:49:56.400Z,16.70
2019-03-30T12:52:26.588Z,16.60
2019-03-30T12:54:56.003Z,16.20
2019-03-30T12:57:25.206Z,16.20
2019-03-30T12:59:53.983Z,16.00
2019-03-30T13:02:22.750Z,15.40
2019-03-30T13:04:51.871Z,14.40
2019-03-30T13:07:20.655Z,14.20
2019-03-30T13:09:49.768Z,14.40
2019-03-30T13:12:18.613Z,14.30
2019-03-30T13:14:47.611Z,14.10
2019-03-30T13:17:16.748Z,14.20
2019-03-30T13:19:45.831Z,14.60
2019-03-30T13:22:14.590Z,15.20
2019-03-30T13:24:43.715Z,15.20
2019-03-30T13:27:13.075Z,14.90
2019-03-30T13:29:42.150Z,15.50
2019-03-30T13:32:10.897Z,15.90
2019-03-30T13:34:40.013Z,16.30
2019-03-30T13:37:16.688Z,17.00
2019-03-30T13:39:46.699Z,17.40
2019-03-30T13:42:15.686Z,16.70
2019-03-30T13:44:44.887Z,16.30
2019-03-30T13:47:13.608Z,15.70
2019-03-30T13:49:42.406Z,15.40
2019-03-30T13:52:11.572Z,15.10
2019-03-30T13:54:40.288Z,14.70
2019-03-30T13:57:09.457Z,14.20
2019-03-30T13:59:38.275Z,14.00
2019-03-30T14:02:07.438Z,13.50
2019-03-30T14:04:36.644Z,13.30
2019-03-30T14:07:05.738Z,13.20
2019-03-30T14:09:34.828Z,12.90
2019-03-30T14:12:03.660Z,12.60
2019-03-30T14:14:32.818Z,12.50
2019-03-30T14:17:01.600Z,12.40
2019-03-30T14:19:30.846Z,12.00
2019-03-30T14:21:59.931Z,11.90
2019-03-30T14:24:29.009Z,11.90
2019-03-30T14:26:57.838Z,11.90
2019-03-30T14:29:26.622Z,11.70
2019-03-30T14:31:55.783Z,11.50
2019-03-30T14:34:24.984Z,11.60
2019-03-30T14:36:53.772Z,11.50
2019-03-30T14:39:22.581Z,11.70
2019-03-30T14:41:51.410Z,12.40
2019-03-30T14:44:20.548Z,13.10
2019-03-30T14:46:50.352Z,13.50
2019-03-30T14:49:19.562Z,13.90
2019-03-30T14:51:49.179Z,13.80
2019-03-30T14:54:18.262Z,14.00
2019-03-30T14:56:47.027Z,14.20
2019-03-30T14:59:16.148Z,13.50
2019-03-30T15:01:44.953Z,13.00
2019-03-30T15:04:14.145Z,12.90
2019-03-30T15:06:43.247Z,13.30
2019-03-30T15:09:12.041Z,13.50
2019-03-30T15:11:40.870Z,13.70
2019-03-30T15:14:09.659Z,13.20
2019-03-30T15:16:38.803Z,12.90
2019-03-30T15:19:07.624Z,13.00
2019-03-30T15:21:36.792Z,12.90
2019-03-30T15:24:05.989Z,13.20
2019-03-30T15:26:35.190Z,13.50
2019-03-30T15:29:03.981Z,13.90
2019-03-30T15:31:32.772Z,13.70
2019-03-30T15:34:01.586Z,13.80
2019-03-30T15:36:30.752Z,13.70
2019-03-30T15:38:59.848Z,13.40
2019-03-30T15:41:29.050Z,12.80
2019-03-30T15:43:58.153Z,12.20
2019-03-30T15:46:27.252Z,12.00
2019-03-30T15:48:56.442Z,12.00
2019-03-30T15:51:25.306Z,12.20
2019-03-30T15:53:54.037Z,12.40
2019-03-30T15:56:23.227Z,12.30
2019-03-30T15:58:52.431Z,12.00
2019-03-30T16:01:21.146Z,11.80
2019-03-30T16:03:50.194Z,11.50
2019-03-30T16:06:18.917Z,11.50
2019-03-30T16:08:47.709Z,11.40
2019-03-30T16:11:16.876Z,11.20
2019-03-30T16:13:45.967Z,10.90
2019-03-30T16:16:14.828Z,10.90
2019-03-30T16:18:43.960Z,10.90
2019-03-30T16:21:13.255Z,10.70
2019-03-30T16:23:42.368Z,10.50
2019-03-30T16:26:11.127Z,10.20
2019-03-30T16:28:40.145Z,10.20
2019-03-30T16:31:09.539Z,10.30
2019-03-30T16:33:38.384Z,10.40
2019-03-30T16:36:07.232Z,10.40
2019-03-30T16:38:36.321Z,10.40
2019-03-30T16:41:05.160Z,10.30
2019-03-30T16:43:33.877Z,10.20
2019-03-30T16:46:02.659Z,10.10
2019-03-30T16:48:31.788Z,10.20
2019-03-30T16:51:00.897Z,10.20
2019-03-30T16:53:29.990Z,10.10
2019-03-30T16:55:59.180Z,10.00
2019-03-30T16:58:28.281Z,9.70
2019-03-30T17:00:57.375Z,9.70
2019-03-30T17:03:26.206Z,9.60
2019-03-30T17:05:55.369Z,9.60
2019-03-30T17:08:24.455Z,9.50
2019-03-30T17:10:53.212Z,9.50
2019-03-30T17:13:22.359Z,9.40
2019-03-30T17:15:51.185Z,9.30
2019-03-30T17:18:20.243Z,9.30
2019-03-30T17:20:49.534Z,9.30
2019-03-30T17:23:18.729Z,9.40
2019-03-30T17:25:48.007Z,9.30
2019-03-30T17:28:17.026Z,9.30
2019-03-30T17:30:45.791Z,9.20
2019-03-30T17:33:14.911Z,9.20
2019-03-30T17:35:43.722Z,9.10
2019-03-30T17:38:12.908Z,9.10
2019-03-30T17:40:42.002Z,9.00
2019-03-30T17:43:11.088Z,9.00
2019-03-30T17:45:39.915Z,9.00
2019-03-30T17:48:08.979Z,8.90
2019-03-30T17:50:38.212Z,8.80
2019-03-30T17:53:06.924Z,8.70
2019-03-30T17:55:35.701Z,8.70
2019-03-30T17:58:12.736Z,8.60
2019-03-30T18:00:35.278Z,8.50
2019-03-30T18:03:04.121Z,8.50
2019-03-30T18:05:33.540Z,8.30
2019-03-30T18:08:02.778Z,8.20
2019-03-30T18:10:31.975Z,8.10
2019-03-30T18:13:00.753Z,8.10
2019-03-30T18:15:35.959Z,8.10
2019-03-30T18:18:04.670Z,8.00
2019-03-30T18:20:43.852Z,8.00
2019-03-30T18:23:12.628Z,8.00
2019-03-30T18:28:26.568Z,8.00
2019-03-30T18:30:46.903Z,8.00
2019-03-30T18:33:15.616Z,7.90
2019-03-30T18:35:45.067Z,7.90
2019-03-30T18:38:14.264Z,7.80
2019-03-30T18:40:43.373Z,7.80
2019-03-30T18:43:12.155Z,7.80
2019-03-30T18:45:41.245Z,7.70
2019-03-30T18:48:14.740Z,7.70
2019-03-30T18:50:44.453Z,7.70
2019-03-30T18:53:14.262Z,7.70
2019-03-30T18:55:42.975Z,7.70
2019-03-30T18:58:11.712Z,7.60
2019-03-30T19:00:40.427Z,7.50
2019-03-30T19:03:09.630Z,7.40
2019-03-30T19:05:38.450Z,7.30
2019-03-30T19:08:07.624Z,7.20
2019-03-30T19:10:36.923Z,7.20
2019-03-30T19:13:06.112Z,7.10
2019-03-30T19:15:35.211Z,7.00
2019-03-30T19:18:04.520Z,6.90
2019-03-30T19:20:33.297Z,6.70
2019-03-30T19:23:02.083Z,6.60
2019-03-30T19:25:31.296Z,6.60
2019-03-30T19:28:00.219Z,6.50
2019-03-30T19:30:29.044Z,6.50
2019-03-30T19:32:58.179Z,6.40
2019-03-30T19:35:27.273Z,6.40
2019-03-30T19:37:56.472Z,6.40
2019-03-30T19:40:25.261Z,6.30
2019-03-30T19:42:54.351Z,6.20
2019-03-30T19:45:23.500Z,6.10
2019-03-30T19:47:52.221Z,6.00
2019-03-30T19:50:21.018Z,5.90
2019-03-30T19:52:49.859Z,5.70
2019-03-30T19:55:19.017Z,5.70
2019-03-30T19:57:48.110Z,5.60
2019-03-30T20:00:17.612Z,5.50
2019-03-30T20:02:46.712Z,5.30
2019-03-30T20:05:15.552Z,5.20
2019-03-30T20:07:44.706Z,5.10
2019-03-30T20:10:13.907Z,5.00
2019-03-30T20:12:42.704Z,4.90
2019-03-30T20:15:11.902Z,4.80
2019-03-30T20:17:41.102Z,4.70
2019-03-30T20:20:10.618Z,4.60
2019-03-30T20:22:39.458Z,4.60
2019-03-30T20:25:09.911Z,4.50
2019-03-30T20:27:38.768Z,4.50
2019-03-30T20:30:09.485Z,4.50
2019-03-30T20:32:38.644Z,4.60
2019-03-30T20:35:08.931Z,4.60
2019-03-30T20:37:47.392Z,4.60
2019-03-30T20:40:16.474Z,4.80
2019-03-30T20:42:57.454Z,4.80
2019-03-30T20:45:26.542Z,4.90
2019-03-30T20:50:35.846Z,5.20
2019-03-30T20:53:05.007Z,5.30
2019-03-30T20:55:34.164Z,5.40
2019-03-30T20:58:02.919Z,5.40
2019-03-30T21:00:32.180Z,5.60
2019-03-30T21:03:01.168Z,5.60
2019-03-30T21:05:30.279Z,5.60
2019-03-30T21:07:59.066Z,5.60
2019-03-30T21:10:27.842Z,5.60
2019-03-30T21:12:56.955Z,5.50
2019-03-30T21:15:25.746Z,5.50
2019-03-30T21:17:54.844Z,5.50
2019-03-30T21:20:23.943Z,5.40
2019-03-30T21:22:53.136Z,5.40
2019-03-30T21:25:21.852Z,5.40
2019-03-30T21:27:50.640Z,5.40
2019-03-30T21:30:19.715Z,5.30
2019-03-30T21:32:48.421Z,5.30
2019-03-30T21:35:17.506Z,5.30
2019-03-30T21:37:46.591Z,5.30
2019-03-30T21:40:15.679Z,5.20
2019-03-30T21:42:44.510Z,5.10
2019-03-30T21:45:13.678Z,5.10
2019-03-30T21:47:42.766Z,5.10
2019-03-30T21:52:46.332Z,5.00
2019-03-30T21:55:15.486Z,5.10
2019-03-30T21:57:44.275Z,5.10
2019-03-30T22:00:14.918Z,5.10
2019-03-30T22:02:43.863Z,5.10
2019-03-30T22:05:13.016Z,5.10
2019-03-30T22:07:42.206Z,5.10
2019-03-30T22:10:16.718Z,5.00
2019-03-30T22:12:45.823Z,5.00
2019-03-30T22:15:17.095Z,4.90
2019-03-30T22:17:45.850Z,4.80
2019-03-30T22:20:14.634Z,4.70
2019-03-30T22:22:43.460Z,4.70
2019-03-30T22:25:12.240Z,4.50
2019-03-30T22:27:41.315Z,4.40
2019-03-30T22:30:24.113Z,4.20
2019-03-30T22:32:42.688Z,4.10
2019-03-30T22:35:12.815Z,3.90
2019-03-30T22:37:41.905Z,3.80
2019-03-30T22:40:11.211Z,3.70
2019-03-30T22:42:40.299Z,3.60
2019-03-30T22:45:09.576Z,3.60
2019-03-30T22:47:38.703Z,3.50
2019-03-30T22:50:08.727Z,3.40
2019-03-30T22:52:37.484Z,3.40
2019-03-30T22:55:09.469Z,3.20
2019-03-30T22:57:44.919Z,3.10
2019-03-30T23:00:22.146Z,3.10
2019-03-30T23:02:57.028Z,3.00
2019-03-30T23:05:26.135Z,2.90
2019-03-30T23:08:07.932Z,2.90
2019-03-30T23:10:36.646Z,2.80
2019-03-30T23:15:45.855Z,2.50
2019-03-30T23:18:29.301Z,2.30
2019-03-30T23:20:58.505Z,2.40
2019-03-30T23:23:33.845Z,2.30
2019-03-30T23:26:02.941Z,2.30
2019-03-30T23:28:32.040Z,2.20
2019-03-30T23:31:01.664Z,2.20
2019-03-30T23:33:30.838Z,2.10
2019-03-30T23:35:59.934Z,2.10
2019-03-30T23:38:28.757Z,2.00
2019-03-30T23:40:57.921Z,1.90
2019-03-30T23:43:27.138Z,1.90
2019-03-30T23:45:56.213Z,1.80
2019-03-30T23:48:25.043Z,1.80
2019-03-30T23:50:54.216Z,1.70
2019-03-30T23:53:22.991Z,1.70
2019-03-30T23:55:51.729Z,1.60
2019-03-30T23:58:20.912Z,1.70
